Time;durP1;ratioP1;P1;durP2;ratioP2;P2;SDS_P1;SDS_P2;PMS_P1;PMS_P2;Temp;Humidity;BMP_temperature;BMP_pressure;BME280_temperature;BME280_humidity;BME280_pressure;Samples;Min_cycle;Max_cycle;Signal;HPM_P1;HPM_P2
2023/06/24 00:02:04;;;;;;;6.07;4.35;;;;;;;22.41;53.92;102348.22;5122733;28;20050;-60
2023/06/24 00:04:32;;;;;;;5.80;3.83;;;;;;;22.40;54.20;102347.41;5123883;28;20075;-61
2023/06/24 00:07:00;;;;;;;6.18;4.20;;;;;;;22.41;54.43;102353.69;5121158;28;20044;-61
2023/06/24 00:09:29;;;;;;;6.47;4.47;;;;;;;22.35;54.14;102344.63;5120777;28;20044;-61
2023/06/24 00:11:59;;;;;;;5.50;4.10;;;;;;;22.37;54.28;102349.84;5121579;28;20047;-61
2023/06/24 00:14:28;;;;;;;6.28;4.70;;;;;;;22.34;54.06;102348.44;5118331;28;20055;-61
2023/06/24 00:16:56;;;;;;;7.00;4.82;;;;;;;22.32;54.10;102350.63;5121690;28;20051;-61
2023/06/24 00:19:26;;;;;;;5.63;4.40;;;;;;;22.32;54.10;102355.28;5116906;28;20489;-60
2023/06/24 00:21:54;;;;;;;5.65;3.97;;;;;;;22.30;54.38;102355.56;5117220;28;20047;-61
2023/06/24 00:24:25;;;;;;;8.68;4.93;;;;;;;22.26;54.37;102354.44;5122252;28;20500;-61
2023/06/24 00:26:55;;;;;;;5.63;4.07;;;;;;;22.28;54.70;102354.16;5123933;28;20040;-61
2023/06/24 00:29:22;;;;;;;5.82;4.38;;;;;;;22.25;54.69;102350.03;5123199;28;20051;-62
2023/06/24 00:31:50;;;;;;;6.03;4.40;;;;;;;22.24;54.55;102353.88;5123269;28;20056;-60
2023/06/24 00:34:19;;;;;;;7.68;4.55;;;;;;;22.23;54.86;102356.88;5112909;28;20048;-61
2023/06/24 00:36:48;;;;;;;6.25;4.40;;;;;;;22.20;54.74;102355.47;5110737;28;20047;-60
2023/06/24 00:39:15;;;;;;;6.55;4.65;;;;;;;22.20;54.79;102360.97;5122970;28;20063;-61
2023/06/24 00:41:43;;;;;;;6.82;4.60;;;;;;;22.19;54.77;102358.47;5114480;28;20073;-60
2023/06/24 00:44:13;;;;;;;5.65;4.35;;;;;;;22.17;55.15;102366.13;5119439;28;20041;-61
2023/06/24 00:46:41;;;;;;;5.43;4.22;;;;;;;22.15;54.73;102351.88;5123390;28;20048;-60
2023/06/24 00:49:09;;;;;;;6.78;5.13;;;;;;;22.15;54.89;102360.09;5121541;28;20469;-61
2023/06/24 00:51:40;;;;;;;6.57;4.45;;;;;;;22.13;54.86;102359.53;5115665;28;20051;-61
2023/06/24 00:54:08;;;;;;;6.57;4.05;;;;;;;22.12;54.87;102360.63;5122852;28;20071;-61
2023/06/24 00:56:38;;;;;;;5.82;4.57;;;;;;;22.11;54.95;102364.44;5118359;28;20040;-61
2023/06/24 00:59:08;;;;;;;7.38;4.65;;;;;;;22.08;54.77;102363.88;5122479;28;20051;-60
2023/06/24 01:01:38;;;;;;;6.43;5.18;;;;;;;22.05;54.61;102369.88;5118591;28;20044;-60
2023/06/24 01:04:07;;;;;;;5.63;4.35;;;;;;;22.05;54.73;102366.31;5123558;28;20062;-61
2023/06/24 01:06:41;;;;;;;6.43;4.93;;;;;;;22.02;54.48;102362.19;5101519;28;20044;-61
2023/06/24 01:09:09;;;;;;;7.88;4.85;;;;;;;22.01;54.31;102357.78;5091428;28;20048;-60
2023/06/24 01:11:36;;;;;;;8.10;4.95;;;;;;;21.98;54.22;102355.56;5101703;28;20105;-60
2023/06/24 01:14:04;;;;;;;7.25;4.70;;;;;;;21.97;54.08;102353.91;5094203;28;20071;-60
2023/06/24 01:16:45;;;;;;;5.60;4.13;;;;;;;21.97;54.02;102353.06;5102398;28;20048;-61
2023/06/24 01:19:34;;;;;;;7.57;4.82;;;;;;;21.96;53.95;102351.44;5101050;28;20051;-60
2023/06/24 01:22:12;;;;;;;5.88;4.18;;;;;;;21.95;54.08;102349.78;5101211;28;20073;-61
2023/06/24 01:24:54;;;;;;;5.65;4.22;;;;;;;21.94;54.02;102356.34;5103812;28;20478;-60
2023/06/24 01:27:54;;;;;;;5.43;3.92;;;;;;;21.94;54.00;102353.59;5102219;28;20051;-61
2023/06/24 01:30:49;;;;;;;6.07;3.83;;;;;;;21.92;53.89;102353.84;5104079;28;20048;-60
2023/06/24 01:33:25;;;;;;;5.22;4.00;;;;;;;21.92;53.70;102342.09;5092950;28;20044;-59
2023/06/24 01:35:55;;;;;;;5.80;3.75;;;;;;;21.91;53.87;102346.75;5106089;28;20048;-61
2023/06/24 01:38:27;;;;;;;4.03;3.20;;;;;;;21.91;53.73;102343.16;5106872;28;20073;-61
2023/06/24 01:40:56;;;;;;;6.00;3.78;;;;;;;21.91;53.58;102346.75;5102896;28;20367;-60
2023/06/24 01:43:25;;;;;;;5.88;4.03;;;;;;;21.90;53.67;102355.22;5105328;28;20044;-60
2023/06/24 01:45:55;;;;;;;5.97;4.22;;;;;;;21.90;53.39;102347.00;5101028;28;20052;-60
2023/06/24 01:48:28;;;;;;;8.95;4.57;;;;;;;21.87;53.55;102353.81;5105831;28;20071;-60
2023/06/24 01:50:59;;;;;;;4.93;3.70;;;;;;;21.84;53.53;102346.13;5104370;28;20059;-60
2023/06/24 01:53:29;;;;;;;5.30;3.40;;;;;;;21.86;53.63;102340.41;5100673;28;20420;-60
2023/06/24 01:55:59;;;;;;;5.38;3.78;;;;;;;21.85;53.67;102346.94;5098310;28;20120;-60
2023/06/24 01:58:28;;;;;;;6.35;4.03;;;;;;;21.83;53.79;102339.00;5104126;28;20483;-60
2023/06/24 02:00:58;;;;;;;9.55;3.20;;;;;;;21.82;53.79;102345.56;5100008;28;20135;-60
2023/06/24 02:03:29;;;;;;;5.18;3.90;;;;;;;21.80;53.75;102345.00;5104539;28;20048;-61
2023/06/24 02:05:58;;;;;;;6.90;4.15;;;;;;;21.80;53.85;102344.16;5118046;28;20052;-60
2023/06/24 02:08:29;;;;;;;5.63;3.60;;;;;;;21.79;53.94;102342.53;5116294;28;20083;-60
2023/06/24 02:11:00;;;;;;;5.00;3.80;;;;;;;21.76;53.85;102341.13;5123710;28;20223;-59
2023/06/24 02:13:31;;;;;;;7.20;3.60;;;;;;;21.74;53.88;102335.09;5121282;28;20051;-60
2023/06/24 02:16:02;;;;;;;6.07;3.92;;;;;;;21.73;53.97;102336.19;5123250;28;20051;-59
2023/06/24 02:18:32;;;;;;;6.68;4.40;;;;;;;21.72;53.99;102345.47;5120025;28;20039;-59
2023/06/24 02:21:01;;;;;;;4.65;3.50;;;;;;;21.69;53.85;102343.25;5122878;28;20055;-61
2023/06/24 02:23:30;;;;;;;5.95;3.97;;;;;;;21.69;54.22;102337.78;5121844;28;20153;-61
2023/06/24 02:26:00;;;;;;;4.78;3.58;;;;;;;21.68;54.23;102345.16;5125467;28;20048;-60
2023/06/24 02:28:30;;;;;;;5.03;4.20;;;;;;;21.65;54.19;102336.66;5124944;28;20043;-61
2023/06/24 02:30:59;;;;;;;5.25;4.00;;;;;;;21.63;54.15;102333.34;5119071;28;20051;-61
2023/06/24 02:33:27;;;;;;;5.90;3.50;;;;;;;21.62;54.20;102332.53;5124542;28;20120;-61
2023/06/24 02:35:56;;;;;;;6.75;3.45;;;;;;;21.60;54.29;102331.13;5124768;28;20043;-60
2023/06/24 02:38:24;;;;;;;5.75;3.70;;;;;;;21.60;54.21;102333.88;5121802;28;20140;-59
2023/06/24 02:40:56;;;;;;;6.80;4.53;;;;;;;21.59;54.42;102337.69;5122840;28;20463;-59
2023/06/24 02:43:24;;;;;;;5.47;4.28;;;;;;;21.57;54.34;102345.34;5124924;28;20055;-60
2023/06/24 02:45:54;;;;;;;5.50;3.95;;;;;;;21.55;54.53;102342.03;5118128;28;20076;-60
2023/06/24 02:48:22;;;;;;;5.25;4.00;;;;;;;21.55;54.55;102339.28;5119868;28;20054;-61
2023/06/24 02:50:51;;;;;;;6.78;4.03;;;;;;;21.53;54.42;102336.00;5119441;28;20093;-61
2023/06/24 02:53:21;;;;;;;7.75;4.20;;;;;;;21.52;54.64;102328.88;5116523;28;20047;-61
2023/06/24 02:55:50;;;;;;;6.47;4.10;;;;;;;21.50;54.57;102337.34;5123751;28;20048;-61
2023/06/24 02:58:18;;;;;;;5.80;3.92;;;;;;;21.50;54.64;102341.97;5122420;28;20457;-60
2023/06/24 03:00:46;;;;;;;8.52;4.15;;;;;;;21.49;54.72;102351.28;5121763;28;20117;-61
2023/06/24 03:03:14;;;;;;;6.10;4.00;;;;;;;21.48;54.60;102344.97;5123802;28;20043;-61
2023/06/24 03:05:44;;;;;;;5.90;4.20;;;;;;;21.47;54.73;102353.44;5123333;28;20066;-60
2023/06/24 03:08:12;;;;;;;5.97;4.20;;;;;;;21.46;54.71;102355.34;5125141;28;20065;-61
2023/06/24 03:10:42;;;;;;;5.38;4.43;;;;;;;21.45;54.77;102356.44;5125419;28;20105;-60
2023/06/24 03:13:10;;;;;;;5.28;3.83;;;;;;;21.43;54.81;102359.41;5107541;28;20044;-61
2023/06/24 03:15:38;;;;;;;7.55;4.05;;;;;;;21.42;54.97;102365.16;5120782;28;20069;-61
2023/06/24 03:18:05;;;;;;;7.78;4.20;;;;;;;21.41;54.88;102358.03;5117530;28;20101;-60
2023/06/24 03:20:38;;;;;;;6.68;4.47;;;;;;;21.40;54.98;102359.94;5122377;28;20052;-60
2023/06/24 03:23:07;;;;;;;5.13;3.97;;;;;;;21.38;54.98;102359.38;5121694;28;20135;-61
2023/06/24 03:25:35;;;;;;;7.07;4.05;;;;;;;21.36;55.11;102358.81;5120686;28;20077;-60
2023/06/24 03:28:07;;;;;;;5.40;4.22;;;;;;;21.37;55.18;102351.41;5120477;28;20040;-60
2023/06/24 03:30:35;;;;;;;6.25;4.35;;;;;;;21.35;55.04;102350.84;5119399;28;20040;-60
2023/06/24 03:33:02;;;;;;;5.22;3.75;;;;;;;21.34;55.05;102351.94;5121649;28;20047;-61
2023/06/24 03:35:32;;;;;;;6.57;4.53;;;;;;;21.32;55.22;102352.19;5124320;28;20043;-60
2023/06/24 03:38:00;;;;;;;5.70;3.95;;;;;;;21.31;55.11;102353.28;5116913;28;20050;-60
2023/06/24 03:40:28;;;;;;;8.68;4.50;;;;;;;21.30;55.21;102354.34;5122251;28;20500;-58
2023/06/24 03:42:56;;;;;;;6.30;4.80;;;;;;;21.29;55.19;102351.88;5123051;28;20047;-60
2023/06/24 03:45:25;;;;;;;5.88;4.10;;;;;;;21.27;55.16;102354.88;5122228;28;20047;-61
2023/06/24 03:47:53;;;;;;;7.28;4.15;;;;;;;21.25;55.27;102348.84;5120362;28;20043;-60
2023/06/24 03:50:21;;;;;;;6.60;4.50;;;;;;;21.24;55.44;102349.91;5119971;28;20071;-61
2023/06/24 03:52:48;;;;;;;5.53;4.03;;;;;;;21.23;55.22;102353.72;5119003;28;20055;-61
2023/06/24 03:55:16;;;;;;;6.53;3.83;;;;;;;21.20;55.11;102359.69;5123785;28;20105;-61
2023/06/24 03:57:44;;;;;;;6.28;4.43;;;;;;;21.20;55.24;102359.69;5118407;28;20055;-61
2023/06/24 04:00:16;;;;;;;5.63;4.40;;;;;;;21.20;55.36;102376.09;5116615;28;20048;-61
2023/06/24 04:02:45;;;;;;;6.63;4.72;;;;;;;21.17;55.47;102371.13;5120204;28;20048;-61
2023/06/24 04:05:14;;;;;;;4.80;3.92;;;;;;;21.15;55.34;102365.09;5122773;28;20132;-62
2023/06/24 04:07:46;;;;;;;5.45;4.18;;;;;;;21.13;55.36;102368.09;4486540;28;10001895;-60
2023/06/24 04:10:15;;;;;;;7.18;4.40;;;;;;;21.13;55.42;102368.09;5111544;28;20272;-60
2023/06/24 04:12:42;;;;;;;6.15;4.15;;;;;;;21.12;55.52;102371.06;5118991;28;20051;-61
2023/06/24 04:15:11;;;;;;;6.00;4.75;;;;;;;21.10;55.34;102365.84;5110382;28;20047;-60
2023/06/24 04:17:39;;;;;;;7.00;4.45;;;;;;;21.09;55.43;102363.38;5110879;28;20078;-61
2023/06/24 04:20:09;;;;;;;5.60;3.67;;;;;;;21.08;55.63;102364.47;5114436;28;20134;-60
2023/06/24 04:22:38;;;;;;;5.47;3.97;;;;;;;21.06;55.44;102370.19;5117855;28;20040;-60
2023/06/24 04:25:06;;;;;;;6.60;4.13;;;;;;;21.05;55.43;102368.53;5116707;28;20051;-58
2023/06/24 04:27:34;;;;;;;6.00;4.28;;;;;;;21.04;55.42;102371.53;5111504;28;20043;-60
2023/06/24 04:30:04;;;;;;;8.93;5.15;;;;;;;21.04;55.55;102368.78;5114984;28;20059;-60
2023/06/24 04:32:31;;;;;;;5.75;3.95;;;;;;;21.03;55.57;102375.34;5110519;28;20052;-60
2023/06/24 04:35:00;;;;;;;5.93;3.83;;;;;;;21.00;55.48;102371.19;5115766;28;20067;-62
2023/06/24 04:37:30;;;;;;;5.55;4.22;;;;;;;21.01;55.42;102380.22;5118866;28;20048;-60
2023/06/24 04:39:58;;;;;;;7.35;4.68;;;;;;;20.98;55.54;102372.53;5117964;28;20103;-60
2023/06/24 04:42:26;;;;;;;7.85;5.00;;;;;;;20.98;55.52;102378.00;5119840;28;20423;-59
2023/06/24 04:44:53;;;;;;;10.45;4.53;;;;;;;20.96;55.56;102378.25;5111394;28;20055;-60
2023/06/24 04:47:21;;;;;;;5.47;4.60;;;;;;;20.97;55.51;102376.34;5118386;28;20074;-61
2023/06/24 04:49:49;;;;;;;6.80;4.55;;;;;;;20.96;55.39;102372.78;5116824;28;20290;-61
2023/06/24 04:52:17;;;;;;;5.40;4.20;;;;;;;20.96;55.14;102367.31;5118438;28;20052;-61
2023/06/24 04:54:46;;;;;;;4.40;3.70;;;;;;;20.96;54.79;102370.06;5117886;28;20094;-61
2023/06/24 04:57:25;;;;;;;6.45;4.30;;;;;;;20.97;54.97;102363.50;5114160;28;20069;-61
2023/06/24 04:59:52;;;;;;;6.43;4.78;;;;;;;20.98;54.92;102367.91;5115945;28;20116;-60
2023/06/24 05:02:20;;;;;;;4.93;3.50;;;;;;;20.99;54.74;102361.34;5115295;28;20051;-60
2023/06/24 05:04:48;;;;;;;7.97;3.90;;;;;;;21.02;54.81;102362.75;5119275;28;20050;-61
2023/06/24 05:07:16;;;;;;;6.03;3.88;;;;;;;21.03;54.74;102358.94;5120286;28;20074;-60
2023/06/24 05:09:47;;;;;;;5.22;4.28;;;;;;;21.05;54.73;102367.69;5119391;28;20074;-61
2023/06/24 05:12:15;;;;;;;6.40;3.85;;;;;;;21.08;54.70;102364.47;5120001;28;20489;-61
2023/06/24 05:14:43;;;;;;;6.97;3.85;;;;;;;21.10;54.59;102365.03;5118918;28;20079;-61
2023/06/24 05:17:11;;;;;;;6.78;4.40;;;;;;;21.11;54.51;102372.97;5119024;28;20055;-61
2023/06/24 05:19:38;;;;;;;5.35;4.10;;;;;;;21.14;54.48;102366.19;5116111;28;20119;-58
2023/06/24 05:22:07;;;;;;;5.15;3.83;;;;;;;21.16;54.56;102368.66;5115331;28;20117;-62
2023/06/24 05:24:35;;;;;;;5.32;4.00;;;;;;;21.19;54.75;102365.41;5112788;28;20078;-64
2023/06/24 05:27:07;;;;;;;7.53;4.32;;;;;;;21.24;54.89;102366.31;5123286;28;20079;-64
2023/06/24 05:29:35;;;;;;;6.68;4.30;;;;;;;21.19;54.72;102351.72;5123800;28;20108;-61
2023/06/24 05:32:03;;;;;;;8.27;3.38;;;;;;;21.27;54.47;102365.81;5117613;28;20149;-61
2023/06/24 05:34:31;;;;;;;6.03;3.65;;;;;;;21.28;54.54;102361.16;5119980;28;20051;-60
2023/06/24 05:36:59;;;;;;;5.53;3.70;;;;;;;21.30;54.40;102359.00;5112934;28;20073;-61
2023/06/24 05:39:27;;;;;;;6.00;3.70;;;;;;;21.32;54.54;102363.13;5122082;28;20044;-61
2023/06/24 05:41:54;;;;;;;5.97;4.30;;;;;;;21.34;54.55;102371.91;5119795;28;20527;-61
2023/06/24 05:44:24;;;;;;;6.70;4.40;;;;;;;21.27;54.43;102359.50;5122631;28;20069;-62
2023/06/24 05:46:51;;;;;;;11.23;5.80;;;;;;;21.33;54.33;102381.19;5118656;28;20047;-60
2023/06/24 05:49:19;;;;;;;6.65;4.47;;;;;;;21.35;54.58;102381.75;5121890;28;20120;-62
2023/06/24 05:51:47;;;;;;;10.57;4.13;;;;;;;21.37;54.66;102379.59;5121674;28;20060;-68
2023/06/24 05:54:15;;;;;;;5.32;4.10;;;;;;;21.39;54.52;102373.88;5116351;28;20081;-62
2023/06/24 05:56:43;;;;;;;10.77;3.90;;;;;;;21.41;54.52;102375.25;5123310;28;20040;-61
2023/06/24 05:59:10;;;;;;;7.80;3.83;;;;;;;21.42;54.60;102376.91;5117243;28;20068;-62
2023/06/24 06:01:39;;;;;;;6.38;3.90;;;;;;;21.44;54.35;102377.50;5121089;28;20105;-62
2023/06/24 06:04:07;;;;;;;5.70;3.28;;;;;;;21.46;54.38;102370.94;5122042;28;20047;-62
2023/06/24 06:06:35;;;;;;;5.00;3.28;;;;;;;21.48;54.25;102374.25;5115881;28;20112;-62
2023/06/24 06:09:03;;;;;;;6.10;3.90;;;;;;;21.50;53.99;102378.38;5122673;28;20047;-62
2023/06/24 06:11:31;;;;;;;7.32;3.38;;;;;;;21.50;54.02;102378.38;5118700;28;20055;-62
2023/06/24 06:13:59;;;;;;;4.65;3.28;;;;;;;21.52;54.03;102375.38;5120283;28;20127;-61
2023/06/24 06:16:28;;;;;;;5.38;3.40;;;;;;;21.54;53.95;102375.94;5120466;28;20048;-63
2023/06/24 06:18:57;;;;;;;5.07;3.63;;;;;;;21.56;53.70;102377.34;5113079;28;20047;-62
2023/06/24 06:21:25;;;;;;;4.95;3.17;;;;;;;21.58;53.65;102382.56;5114471;28;20129;-61
2023/06/24 06:23:53;;;;;;;6.60;3.22;;;;;;;21.61;53.73;102390.25;5122461;28;20052;-62
2023/06/24 06:26:21;;;;;;;7.05;3.50;;;;;;;21.57;53.72;102370.78;5121255;28;20052;-62
2023/06/24 06:28:49;;;;;;;4.32;3.15;;;;;;;21.70;53.51;102381.31;5121964;28;20075;-62
2023/06/24 06:31:17;;;;;;;5.75;2.97;;;;;;;21.72;53.48;102381.06;5110436;28;20066;-63
2023/06/24 06:33:45;;;;;;;4.85;2.88;;;;;;;21.74;53.32;102385.19;5119315;28;20493;-62
2023/06/24 06:36:14;;;;;;;4.65;2.83;;;;;;;21.81;53.26;102395.09;5122073;28;20052;-62
2023/06/24 06:38:42;;;;;;;4.50;2.80;;;;;;;21.85;53.02;102380.63;5117993;28;20074;-62
2023/06/24 06:41:10;;;;;;;5.07;3.35;;;;;;;21.89;53.11;102387.22;5112989;28;20048;-62
2023/06/24 06:43:38;;;;;;;4.13;2.80;;;;;;;21.90;52.85;102388.88;5122271;28;20039;-62
2023/06/24 06:46:06;;;;;;;3.60;2.97;;;;;;;21.91;53.06;102395.19;5121668;28;20582;-63
2023/06/24 06:48:34;;;;;;;6.53;3.22;;;;;;;21.92;52.81;102394.94;5116522;28;20043;-61
2023/06/24 06:51:02;;;;;;;3.80;2.63;;;;;;;21.94;52.63;102400.97;5114150;28;20630;-62
2023/06/24 06:53:31;;;;;;;5.13;2.70;;;;;;;21.95;52.74;102393.56;5121470;28;20112;-61
2023/06/24 06:55:59;;;;;;;5.13;2.78;;;;;;;21.94;52.59;102403.69;5121283;28;20081;-62
2023/06/24 06:58:27;;;;;;;5.15;2.70;;;;;;;21.93;52.15;102393.84;5120400;28;20074;-63
2023/06/24 07:00:55;;;;;;;3.83;2.75;;;;;;;22.00;52.03;102399.09;5120740;28;20455;-62
2023/06/24 07:03:22;;;;;;;5.43;2.70;;;;;;;22.01;52.17;102401.56;5116930;28;20104;-62
2023/06/24 07:05:50;;;;;;;6.00;2.55;;;;;;;22.02;51.74;102403.25;5114457;28;20066;-62
2023/06/24 07:08:18;;;;;;;5.05;2.75;;;;;;;22.03;51.90;102410.38;5113935;28;20097;-62
2023/06/24 07:10:47;;;;;;;4.95;2.47;;;;;;;22.07;51.67;102411.53;5117840;28;20070;-66
2023/06/24 07:13:15;;;;;;;3.58;2.72;;;;;;;22.07;50.44;102417.00;5122423;28;20385;-66
2023/06/24 07:15:43;;;;;;;3.90;2.30;;;;;;;22.10;50.52;102412.91;5115569;28;20067;-65
2023/06/24 07:18:10;;;;;;;3.33;2.28;;;;;;;22.09;50.56;102416.72;5123955;28;20044;-67
2023/06/24 07:20:38;;;;;;;6.15;2.75;;;;;;;22.11;50.76;102419.22;5118778;28;20077;-67
2023/06/24 07:23:10;;;;;;;7.43;2.75;;;;;;;22.10;50.71;102420.31;5121847;28;20719;-69
2023/06/24 07:25:37;;;;;;;5.90;2.85;;;;;;;22.07;50.34;102421.66;5121926;28;20097;-64
2023/06/24 07:28:06;;;;;;;6.88;2.67;;;;;;;22.05;50.42;102421.91;5122587;28;20043;-64
2023/06/24 07:30:34;;;;;;;6.40;2.58;;;;;;;22.04;50.34;102411.22;5118651;28;20048;-64
2023/06/24 07:33:05;;;;;;;4.63;2.47;;;;;;;22.02;50.83;102414.22;5122087;28;20081;-66
2023/06/24 07:35:33;;;;;;;6.20;2.22;;;;;;;22.02;51.11;102414.22;5124384;28;20075;-68
2023/06/24 07:38:02;;;;;;;4.97;2.75;;;;;;;22.02;50.86;102407.91;5120813;28;20054;-66
2023/06/24 07:40:29;;;;;;;3.72;2.03;;;;;;;22.04;51.16;102408.47;5119280;28;20047;-65
2023/06/24 07:42:57;;;;;;;6.63;2.60;;;;;;;22.07;51.25;102408.78;5118702;28;20051;-64
2023/06/24 07:45:26;;;;;;;4.70;2.40;;;;;;;22.06;51.35;102409.88;5118619;28;20040;-63
2023/06/24 07:47:54;;;;;;;7.30;2.55;;;;;;;22.04;51.16;102413.94;5117588;28;20042;-64
2023/06/24 07:50:22;;;;;;;6.82;3.30;;;;;;;22.04;51.34;102409.31;5117739;28;20480;-64
2023/06/24 07:52:50;;;;;;;3.17;1.83;;;;;;;22.21;51.82;102409.16;5119243;28;20059;-64
2023/06/24 07:55:17;;;;;;;6.90;2.33;;;;;;;22.21;51.52;102406.44;5124598;28;20431;-65
2023/06/24 07:57:46;;;;;;;5.30;2.08;;;;;;;22.34;51.06;102410.63;5118266;28;20044;-63
2023/06/24 08:00:15;;;;;;;7.00;2.40;;;;;;;22.25;50.74;102406.72;5120985;28;20077;-65
2023/06/24 08:02:44;;;;;;;4.30;2.70;;;;;;;22.20;50.95;102403.94;5119136;28;20073;-64
2023/06/24 08:05:12;;;;;;;3.95;2.10;;;;;;;22.32;51.51;102407.34;5115644;28;20060;-66
2023/06/24 08:07:40;;;;;;;4.00;2.22;;;;;;;22.30;50.85;102401.28;5119754;28;20099;-66
2023/06/24 08:10:08;;;;;;;3.33;2.35;;;;;;;22.33;51.06;102401.59;5124207;28;20065;-65
2023/06/24 08:12:36;;;;;;;4.43;2.17;;;;;;;22.27;51.27;102401.81;5115813;28;20055;-64
2023/06/24 08:15:05;;;;;;;4.60;2.17;;;;;;;22.24;50.85;102402.34;5125191;28;20051;-64
2023/06/24 08:17:33;;;;;;;4.35;2.35;;;;;;;22.22;50.74;102394.38;5122977;28;20051;-64
2023/06/24 08:20:03;;;;;;;4.65;2.35;;;;;;;22.37;50.76;102404.63;5117867;28;20181;-63
2023/06/24 08:22:31;;;;;;;2.85;2.05;;;;;;;22.45;50.35;102404.13;5116361;28;20043;-62
2023/06/24 08:24:59;;;;;;;7.00;2.50;;;;;;;22.41;50.49;102403.00;5121721;28;20054;-62
2023/06/24 08:27:27;;;;;;;4.45;2.15;;;;;;;22.32;50.37;102402.69;5116116;28;20047;-62
2023/06/24 08:29:55;;;;;;;4.50;2.35;;;;;;;22.26;50.50;102392.78;5121836;28;20108;-62
2023/06/24 08:32:23;;;;;;;3.42;2.13;;;;;;;22.25;50.84;102395.78;5122258;28;20093;-63
2023/06/24 08:34:51;;;;;;;3.38;2.00;;;;;;;22.29;50.84;102394.16;5122331;28;20052;-63
2023/06/24 08:37:20;;;;;;;3.25;2.15;;;;;;;22.40;50.71;102404.09;5120923;28;20063;-63
2023/06/24 08:39:48;;;;;;;2.95;1.98;;;;;;;22.31;51.07;102395.56;5125759;28;20515;-61
2023/06/24 08:42:16;;;;;;;4.68;1.95;;;;;;;22.53;50.88;102400.09;5121447;28;20048;-61
2023/06/24 08:44:43;;;;;;;6.15;1.90;;;;;;;22.47;50.36;102398.41;5118956;28;20055;-62
2023/06/24 08:47:14;;;;;;;4.63;1.90;;;;;;;22.46;50.67;102391.25;5127105;28;20073;-61
2023/06/24 08:49:47;;;;;;;4.20;2.00;;;;;;;22.44;50.68;102391.53;5127930;28;20048;-62
2023/06/24 08:52:17;;;;;;;3.60;1.90;;;;;;;22.46;50.81;102394.84;5124766;28;20044;-61
2023/06/24 08:54:51;;;;;;;3.03;2.00;;;;;;;22.40;50.83;102385.75;5124734;28;20092;-62
2023/06/24 08:57:19;;;;;;;3.30;2.20;;;;;;;22.42;51.12;102388.22;5114921;28;20048;-62
2023/06/24 08:59:46;;;;;;;3.53;1.90;;;;;;;22.45;50.81;102390.44;5120704;28;20047;-62
2023/06/24 09:02:14;;;;;;;4.07;1.92;;;;;;;22.59;50.62;102394.34;5126493;28;20062;-62
2023/06/24 09:04:42;;;;;;;2.50;2.00;;;;;;;22.60;50.58;102389.69;5126271;28;20106;-62
2023/06/24 09:07:11;;;;;;;2.88;1.95;;;;;;;22.63;50.13;102380.94;5118843;28;20480;-62
2023/06/24 09:09:44;;;;;;;2.42;1.73;;;;;;;22.58;50.54;102384.47;5127991;28;20036;-62
2023/06/24 09:12:14;;;;;;;2.90;1.80;;;;;;;22.68;50.30;102384.53;5114853;28;20048;-64
2023/06/24 09:14:49;;;;;;;4.03;1.83;;;;;;;22.93;49.59;102383.03;4755680;28;10000647;-62
2023/06/24 09:17:17;;;;;;;2.60;1.63;;;;;;;22.86;49.82;102379.72;5118722;28;20186;-63
2023/06/24 09:19:44;;;;;;;3.08;1.80;;;;;;;22.84;49.72;102368.19;5117178;28;20055;-62
2023/06/24 09:22:17;;;;;;;3.50;2.10;;;;;;;22.82;49.87;102371.19;5123191;28;20055;-62
2023/06/24 09:24:46;;;;;;;3.67;2.08;;;;;;;22.87;49.62;102365.72;5108474;28;20134;-62
2023/06/24 09:27:19;;;;;;;3.38;1.92;;;;;;;23.07;48.90;102367.75;5117494;28;20671;-62
2023/06/24 09:29:47;;;;;;;2.67;1.95;;;;;;;23.04;48.86;102366.34;5121852;28;20047;-63
2023/06/24 09:32:15;;;;;;;3.50;1.77;;;;;;;22.96;49.56;102366.03;5122161;28;20101;-64
2023/06/24 09:34:44;;;;;;;3.22;1.92;;;;;;;22.93;49.46;102355.63;5115855;28;20047;-62
2023/06/24 09:37:22;;;;;;;2.92;1.85;;;;;;;22.97;49.66;102346.59;5121901;28;20067;-62
2023/06/24 09:39:50;;;;;;;4.55;1.98;;;;;;;22.98;49.89;102353.72;5123195;28;20058;-63
2023/06/24 09:42:21;;;;;;;4.40;1.95;;;;;;;22.97;49.88;102346.59;5121542;28;20048;-62
2023/06/24 09:44:54;;;;;;;3.65;1.85;;;;;;;22.98;49.93;102348.22;5120275;28;20054;-62
2023/06/24 09:47:24;;;;;;;2.97;1.73;;;;;;;23.12;49.22;102345.81;5120349;28;20052;-66
2023/06/24 09:49:53;;;;;;;3.78;2.10;;;;;;;23.08;49.16;102341.97;5124141;28;20047;-64
2023/06/24 09:52:22;;;;;;;3.15;2.00;;;;;;;23.15;49.36;102339.78;5120859;28;20051;-64
2023/06/24 09:54:52;;;;;;;3.17;1.92;;;;;;;23.17;49.14;102337.59;5120369;28;20101;-63
2023/06/24 09:57:28;;;;;;;3.03;2.10;;;;;;;23.11;49.66;102324.13;5124293;28;20047;-64
2023/06/24 09:59:55;;;;;;;3.28;1.92;;;;;;;23.23;48.86;102338.44;5121905;28;20043;-64
2023/06/24 10:02:24;;;;;;;3.63;2.03;;;;;;;23.22;48.82;102340.34;5118060;28;20047;-63
2023/06/24 10:04:53;;;;;;;2.92;1.80;;;;;;;23.25;49.01;102330.75;5120973;28;20051;-63
2023/06/24 10:07:21;;;;;;;2.80;1.90;;;;;;;23.27;49.39;102331.31;5119728;28;20495;-64
2023/06/24 10:09:49;;;;;;;3.15;2.00;;;;;;;23.30;48.74;102339.81;5122103;28;20079;-62
2023/06/24 10:12:17;;;;;;;3.33;2.42;;;;;;;23.46;47.96;102331.63;5116221;28;20090;-62
2023/06/24 10:14:46;;;;;;;2.65;1.95;;;;;;;23.46;48.77;102328.88;5122325;28;20051;-66
2023/06/24 10:17:15;;;;;;;3.47;1.95;;;;;;;23.45;48.78;102329.97;5120901;28;20052;-64
2023/06/24 10:19:43;;;;;;;2.13;1.67;;;;;;;23.51;47.32;102326.13;5121474;28;20054;-67
2023/06/24 10:22:11;;;;;;;6.53;1.98;;;;;;;23.57;48.59;102331.41;5124823;28;20048;-64
2023/06/24 10:24:41;;;;;;;4.45;1.83;;;;;;;23.57;49.18;102325.91;5120649;28;20069;-63
2023/06/24 10:27:14;;;;;;;5.57;2.20;;;;;;;23.59;48.99;102329.19;5119011;28;20098;-63
2023/06/24 10:29:47;;;;;;;4.63;1.98;;;;;;;23.59;49.27;102329.19;5117159;28;20040;-67
2023/06/24 10:32:16;;;;;;;3.22;1.70;;;;;;;23.61;49.25;102321.50;5120554;28;20065;-63
2023/06/24 10:34:45;;;;;;;4.75;1.85;;;;;;;23.61;48.96;102315.19;5124113;28;20051;-65
2023/06/24 10:37:14;;;;;;;2.88;1.90;;;;;;;23.70;47.85;102324.53;5119997;28;20047;-65
2023/06/24 10:39:50;;;;;;;2.78;2.05;;;;;;;23.73;48.42;102318.50;5124968;28;20047;-64
2023/06/24 10:42:33;;;;;;;3.75;1.65;;;;;;;23.73;49.16;102329.47;5124700;28;20460;-64
2023/06/24 10:45:15;;;;;;;3.03;2.03;;;;;;;23.81;47.68;102309.72;5120781;28;20043;-63
2023/06/24 10:47:44;;;;;;;4.45;2.13;;;;;;;23.80;48.49;102305.31;5114253;28;20136;-63
2023/06/24 10:50:13;;;;;;;3.53;1.80;;;;;;;23.86;48.79;102306.97;5120808;28;20461;-65
2023/06/24 10:52:43;;;;;;;4.20;1.90;;;;;;;23.88;49.26;102306.69;5118702;28;20066;-67
2023/06/24 10:55:13;;;;;;;3.45;2.10;;;;;;;23.88;48.95;102304.78;5116617;28;20516;-65
2023/06/24 10:57:41;;;;;;;1.85;1.55;;;;;;;23.90;49.45;102305.31;5120580;28;20111;-65
2023/06/24 11:00:12;;;;;;;2.60;1.50;;;;;;;23.92;49.32;102294.88;5121674;28;20043;-66
2023/06/24 11:02:40;;;;;;;5.88;2.05;;;;;;;23.91;48.07;102293.22;5123019;28;20047;-66
2023/06/24 11:05:09;;;;;;;3.58;1.83;;;;;;;23.90;47.25;102297.06;5121374;28;20069;-65
2023/06/24 11:07:39;;;;;;;7.75;2.30;;;;;;;23.88;46.95;102296.53;5117824;28;20043;-66
2023/06/24 11:10:08;;;;;;;4.55;2.22;;;;;;;23.87;45.90;102292.13;5121659;28;20524;-66
2023/06/24 11:12:41;;;;;;;3.30;1.80;;;;;;;23.89;46.50;102298.19;5123346;28;20040;-65
2023/06/24 11:15:11;;;;;;;2.50;1.80;;;;;;;23.91;47.04;102293.22;5119151;28;20423;-64
2023/06/24 11:17:40;;;;;;;3.17;2.35;;;;;;;23.94;46.54;102292.69;5121354;28;20047;-65
2023/06/24 11:20:09;;;;;;;4.53;1.98;;;;;;;23.98;46.70;102291.03;5124730;28;20048;-65
2023/06/24 11:22:37;;;;;;;4.32;2.35;;;;;;;23.99;44.30;102283.63;5120930;28;20044;-66
2023/06/24 11:25:05;;;;;;;4.07;2.45;;;;;;;23.95;43.00;102285.25;5122300;28;20051;-66
2023/06/24 11:27:33;;;;;;;4.30;2.20;;;;;;;23.94;42.97;102280.88;5121340;28;20051;-66
2023/06/24 11:30:02;;;;;;;3.38;2.53;;;;;;;23.96;43.52;102289.66;5120628;28;20421;-66
2023/06/24 11:32:38;;;;;;;3.25;2.10;;;;;;;24.02;45.46;102283.06;5120703;28;20051;-65
2023/06/24 11:35:08;;;;;;;3.20;2.00;;;;;;;24.09;45.66;102280.03;5120185;28;20048;-65